Time;durP1;ratioP1;P1;durP2;ratioP2;P2;SDS_P1;SDS_P2;PMS_P1;PMS_P2;Temp;Humidity;BMP_temperature;BMP_pressure;BME280_temperature;BME280_humidity;BME280_pressure;Samples;Min_cycle;Max_cycle;Signal;HPM_P1;HPM_P2
2022/03/08 05:03:37;;;;;;;27.20;17.70;;;;;;;2.41;49.04;100995.06;5606312;31;80019;-54
2022/03/08 05:06:40;;;;;;;25.50;16.50;;;;;;;2.41;49.04;100995.06;5587540;31;34088;-54
2022/03/08 05:09:42;;;;;;;27.13;16.80;;;;;;;1.95;49.92;100994.22;5593235;31;33701;-54
2022/03/08 05:12:45;;;;;;;29.40;17.02;;;;;;;1.80;50.23;100983.09;5594806;31;34281;-54
2022/03/08 05:15:48;;;;;;;24.98;17.33;;;;;;;1.90;50.25;100987.94;5603318;31;34346;-54
2022/03/08 05:18:51;;;;;;;27.23;17.95;;;;;;;1.87;49.89;100982.03;5603092;31;33291;-54
2022/03/08 05:21:53;;;;;;;25.35;17.60;;;;;;;1.99;49.97;100981.41;5601922;31;33598;-54
2022/03/08 05:24:55;;;;;;;23.40;16.73;;;;;;;1.85;50.23;100984.09;5603132;31;33694;-54
2022/03/08 05:27:58;;;;;;;31.02;17.00;;;;;;;1.96;50.52;100981.84;5602192;31;34301;-54
2022/03/08 05:31:00;;;;;;;25.25;18.58;;;;;;;1.99;50.22;100984.06;5603362;31;33508;-54
2022/03/08 05:34:02;;;;;;;26.95;18.83;;;;;;;2.11;49.81;100985.00;5602670;31;32061;-54
2022/03/08 05:37:05;;;;;;;27.45;18.55;;;;;;;2.05;50.06;100986.69;5601969;31;33590;-54
2022/03/08 05:40:08;;;;;;;27.85;18.62;;;;;;;1.83;50.67;100985.31;5603137;31;33678;-54
2022/03/08 05:43:10;;;;;;;26.65;17.77;;;;;;;1.89;50.29;100989.78;5602426;31;33564;-54
2022/03/08 05:46:12;;;;;;;28.15;20.45;;;;;;;2.05;49.91;100991.12;5603044;31;34419;-54
2022/03/08 05:49:15;;;;;;;26.62;18.98;;;;;;;2.09;49.87;100990.53;5601242;31;33753;-54
2022/03/08 05:52:17;;;;;;;28.55;18.17;;;;;;;2.02;50.28;100989.75;5602145;31;33791;-54
2022/03/08 05:55:19;;;;;;;32.05;19.62;;;;;;;1.91;50.33;100993.00;5602449;31;34273;-54
2022/03/08 05:58:22;;;;;;;26.15;18.35;;;;;;;1.78;51.55;100995.69;5592519;31;31819;-54
2022/03/08 06:01:24;;;;;;;26.85;18.85;;;;;;;1.94;51.31;100997.88;5582489;31;33671;-54
2022/03/08 06:04:27;;;;;;;32.60;20.00;;;;;;;1.76;51.21;101001.19;5582661;32;33610;-54
2022/03/08 06:07:29;;;;;;;30.52;18.60;;;;;;;1.92;50.87;100999.94;5582943;31;33608;-55
2022/03/08 06:10:32;;;;;;;27.65;18.83;;;;;;;2.00;50.96;101002.34;5583167;31;33578;-54
2022/03/08 06:13:34;;;;;;;27.83;18.85;;;;;;;1.99;50.69;101006.03;5576205;31;33772;-54
2022/03/08 06:16:37;;;;;;;28.42;18.58;;;;;;;2.18;50.37;101011.44;5569225;31;33758;-54
2022/03/08 06:19:39;;;;;;;28.30;18.45;;;;;;;2.11;50.49;101008.81;5569361;32;33563;-54
2022/03/08 06:22:42;;;;;;;29.45;19.05;;;;;;;2.05;50.64;101012.28;5585176;31;33667;-56
2022/03/08 06:25:44;;;;;;;35.58;20.92;;;;;;;1.80;51.24;101010.34;5589175;31;34245;-54
2022/03/08 06:28:46;;;;;;;38.33;20.45;;;;;;;1.89;50.98;101021.50;5570868;31;34301;-55
2022/03/08 06:31:48;;;;;;;35.97;20.05;;;;;;;1.90;51.40;101023.13;5574830;31;33254;-54
2022/03/08 06:34:51;;;;;;;33.53;20.12;;;;;;;1.96;51.15;101027.59;5567898;32;34111;-54
2022/03/08 06:37:53;;;;;;;26.67;19.17;;;;;;;2.18;51.29;101022.03;5568135;32;33804;-54
2022/03/08 06:40:57;;;;;;;34.10;19.70;;;;;;;2.09;51.18;101024.09;5573523;31;34098;-54
2022/03/08 06:44:00;;;;;;;34.15;19.27;;;;;;;2.17;51.24;101029.16;5568573;31;33727;-54
2022/03/08 06:47:03;;;;;;;30.52;19.25;;;;;;;2.16;51.53;101035.47;5569257;32;33682;-54
2022/03/08 06:50:06;;;;;;;30.00;20.33;;;;;;;2.16;51.60;101032.03;5574841;31;33702;-54
2022/03/08 06:53:09;;;;;;;28.20;19.35;;;;;;;2.10;52.12;101034.47;5568787;31;33446;-54
2022/03/08 06:56:11;;;;;;;29.60;20.08;;;;;;;2.09;51.67;101037.31;5581004;31;33927;-54
2022/03/08 06:59:13;;;;;;;31.00;21.60;;;;;;;2.19;51.63;101039.53;5587121;31;33585;-53
2022/03/08 07:02:16;;;;;;;36.78;20.67;;;;;;;2.40;51.83;101035.78;5571736;31;33833;-55
2022/03/08 07:05:18;;;;;;;28.90;20.60;;;;;;;2.41;51.64;101037.41;5569315;32;34018;-54
2022/03/08 07:08:21;;;;;;;29.55;19.92;;;;;;;2.53;51.19;101044.47;5572967;31;34324;-54
2022/03/08 07:11:23;;;;;;;33.30;20.95;;;;;;;2.62;51.24;101037.13;5583733;31;33318;-54
2022/03/08 07:14:25;;;;;;;31.60;20.12;;;;;;;2.77;51.41;101047.41;5587403;31;33656;-55
2022/03/08 07:17:28;;;;;;;40.45;19.83;;;;;;;3.07;50.81;101047.66;5574842;31;33730;-54
2022/03/08 07:20:30;;;;;;;31.80;19.85;;;;;;;3.28;50.06;101046.50;5569146;31;33612;-54
2022/03/08 07:23:33;;;;;;;34.78;21.40;;;;;;;3.28;50.32;101046.50;5567205;31;34349;-54
2022/03/08 07:26:35;;;;;;;35.97;20.95;;;;;;;3.39;50.45;101048.44;5567157;31;34545;-54
2022/03/08 07:29:37;;;;;;;29.67;20.52;;;;;;;3.63;50.46;101054.75;5568132;32;33587;-54
2022/03/08 07:32:40;;;;;;;28.30;19.95;;;;;;;3.78;49.94;101050.97;5568089;32;33722;-54
2022/03/08 07:35:42;;;;;;;33.60;21.83;;;;;;;3.90;49.46;101054.50;5567367;32;33595;-55
2022/03/08 07:38:44;;;;;;;33.45;19.05;;;;;;;3.98;50.59;101057.72;5572171;31;33408;-54
2022/03/08 07:41:47;;;;;;;31.52;20.58;;;;;;;4.06;47.63;101059.25;5564352;31;34333;-55
2022/03/08 07:44:49;;;;;;;35.22;20.37;;;;;;;4.12;48.60;101049.59;5565032;32;33716;-54
2022/03/08 07:47:51;;;;;;;29.27;20.45;;;;;;;4.24;47.50;101046.00;5567045;31;34962;-55
2022/03/08 07:50:54;;;;;;;29.52;20.67;;;;;;;4.44;46.51;101045.78;5565864;32;33730;-54
2022/03/08 07:53:59;;;;;;;22.87;16.42;;;;;;;4.49;46.56;101053.06;5566607;31;34362;-54
2022/03/08 07:57:01;;;;;;;24.00;16.42;;;;;;;4.68;45.61;101044.03;5562502;31;34293;-55
2022/03/08 08:00:05;;;;;;;23.85;15.02;;;;;;;5.22;44.00;101048.59;5568147;32;33067;-54
2022/03/08 08:03:08;;;;;;;21.42;14.35;;;;;;;5.14;43.92;101055.84;5568511;32;33799;-54
2022/03/08 08:06:10;;;;;;;21.35;13.30;;;;;;;5.57;42.41;101049.44;5568548;31;34465;-54
2022/03/08 08:09:13;;;;;;;22.08;14.35;;;;;;;5.39;42.15;101054.84;5567610;31;33228;-54
2022/03/08 08:12:15;;;;;;;19.08;13.30;;;;;;;5.36;43.01;101044.66;5567792;31;33794;-54
2022/03/08 08:15:18;;;;;;;17.67;12.05;;;;;;;5.30;42.82;101038.44;5571268;31;33638;-55
2022/03/08 08:18:20;;;;;;;17.10;12.07;;;;;;;5.51;42.27;101038.94;5567938;32;33703;-54
2022/03/08 08:21:23;;;;;;;18.15;11.70;;;;;;;5.75;41.55;101043.19;5568452;32;33808;-55
2022/03/08 08:24:30;;;;;;;19.02;11.98;;;;;;;5.77;41.46;101042.97;5580223;31;33663;-55
2022/03/08 08:27:33;;;;;;;17.50;11.05;;;;;;;5.84;41.20;101035.69;5584603;31;33781;-55
2022/03/08 08:30:36;;;;;;;18.48;11.80;;;;;;;6.11;40.61;101044.03;5557219;31;34329;-55
2022/03/08 08:33:38;;;;;;;17.77;11.70;;;;;;;5.87;41.06;101038.69;5559046;32;33653;-54
2022/03/08 08:36:46;;;;;;;19.55;12.65;;;;;;;6.04;41.27;101038.81;5571101;31;33308;-55
2022/03/08 08:39:55;;;;;;;18.50;12.68;;;;;;;6.19;40.95;101038.34;5587516;31;34357;-55
2022/03/08 08:42:57;;;;;;;17.85;13.27;;;;;;;6.15;41.76;101026.53;5586522;31;34310;-55
2022/03/08 08:45:59;;;;;;;19.58;12.82;;;;;;;6.22;40.85;101029.06;5571962;31;33572;-54
2022/03/08 08:49:03;;;;;;;18.27;12.23;;;;;;;6.23;40.81;101025.38;5567467;32;33811;-55
2022/03/08 08:52:06;;;;;;;16.67;11.82;;;;;;;6.23;41.04;101028.03;5565384;31;33805;-56
2022/03/08 08:55:09;;;;;;;17.48;12.20;;;;;;;6.41;40.72;101021.72;5565659;32;33548;-55
2022/03/08 08:58:12;;;;;;;17.37;12.18;;;;;;;6.24;41.46;101029.66;5567905;32;34381;-55
2022/03/08 09:01:14;;;;;;;16.35;11.68;;;;;;;6.43;40.90;101025.78;5568093;31;33641;-55
2022/03/08 09:04:17;;;;;;;17.35;12.77;;;;;;;6.63;41.05;101019.22;5567071;31;33688;-56
2022/03/08 09:07:19;;;;;;;18.10;12.73;;;;;;;6.75;40.09;101027.97;5580559;31;32171;-55
2022/03/08 09:10:23;;;;;;;19.45;13.23;;;;;;;6.56;40.11;101020.16;5585665;31;34554;-55
2022/03/08 09:13:26;;;;;;;19.80;13.48;;;;;;;6.34;41.08;101016.53;5578503;31;33735;-55
2022/03/08 09:16:28;;;;;;;18.00;13.27;;;;;;;6.74;41.02;101021.81;5564948;31;33719;-55
2022/03/08 09:19:31;;;;;;;19.67;13.62;;;;;;;6.50;40.47;101021.13;5575788;31;33715;-55
2022/03/08 09:22:34;;;;;;;18.95;12.30;;;;;;;6.43;40.36;101011.66;5558147;31;33343;-55
2022/03/08 09:25:38;;;;;;;21.30;12.18;;;;;;;6.53;40.38;101017.19;5565895;31;33724;-55
2022/03/08 09:28:40;;;;;;;14.75;11.23;;;;;;;6.80;39.86;101020.06;5571586;31;34298;-55
2022/03/08 09:31:43;;;;;;;17.25;11.10;;;;;;;7.03;39.04;101019.94;5569261;31;34420;-55
2022/03/08 09:34:46;;;;;;;15.57;11.95;;;;;;;7.05;38.52;101017.84;5566926;32;33451;-55
2022/03/08 09:37:48;;;;;;;13.65;10.40;;;;;;;7.04;39.28;101012.75;5564640;31;33806;-55
2022/03/08 09:40:51;;;;;;;18.30;12.30;;;;;;;7.33;37.50;101018.03;5582679;31;33601;-55
2022/03/08 09:43:54;;;;;;;19.65;11.45;;;;;;;7.29;38.36;101018.50;5564049;31;33648;-55
2022/03/08 09:46:56;;;;;;;17.90;11.70;;;;;;;7.53;37.80;101021.00;5567099;31;34047;-55
2022/03/08 09:49:59;;;;;;;15.95;11.48;;;;;;;7.52;37.75;101020.19;5568744;31;33828;-55
2022/03/08 09:53:03;;;;;;;16.42;11.43;;;;;;;7.53;37.72;101013.00;5566242;32;32976;-55
2022/03/08 09:56:05;;;;;;;17.95;11.73;;;;;;;7.60;37.65;101013.63;5578567;31;33736;-55
2022/03/08 09:59:08;;;;;;;15.68;11.73;;;;;;;7.79;38.74;101022.19;5572957;31;33634;-55
2022/03/08 10:02:14;;;;;;;18.17;13.30;;;;;;;7.74;37.79;101014.09;5577042;31;33659;-55
2022/03/08 10:05:28;;;;;;;17.50;11.23;;;;;;;7.65;38.19;101023.56;5585207;31;34416;-55
2022/03/08 10:08:30;;;;;;;16.48;11.00;;;;;;;7.74;37.03;101014.09;5572712;31;33613;-55
2022/03/08 10:11:37;;;;;;;18.95;12.07;;;;;;;7.82;37.44;101016.34;5569700;32;34401;-54
2022/03/08 10:14:57;;;;;;;20.75;12.25;;;;;;;8.10;36.66;101015.38;5575954;31;33976;-55
2022/03/08 10:18:00;;;;;;;19.62;13.05;;;;;;;8.06;36.56;101008.94;5566828;31;33738;-54
2022/03/08 10:21:03;;;;;;;17.55;11.27;;;;;;;7.60;37.21;101012.84;5575893;31;33670;-55
2022/03/08 10:24:16;;;;;;;16.83;12.43;;;;;;;7.41;37.08;101010.41;5580994;31;34347;-55
2022/03/08 10:27:19;;;;;;;16.30;10.90;;;;;;;7.70;37.25;101013.78;5569689;31;33709;-55
2022/03/08 10:30:28;;;;;;;18.58;12.40;;;;;;;7.86;36.63;101014.81;5578780;31;34300;-55
2022/03/08 10:33:39;;;;;;;17.48;12.55;;;;;;;7.73;36.39;101015.16;5570262;31;33769;-55
2022/03/08 10:36:57;;;;;;;21.50;12.88;;;;;;;7.62;37.07;101010.75;5577184;31;33714;-55
2022/03/08 10:40:08;;;;;;;13.68;10.77;;;;;;;7.75;37.46;101008.53;5582933;31;33640;-55
2022/03/08 10:43:16;;;;;;;18.12;12.15;;;;;;;7.93;36.81;101007.41;5572887;31;33646;-55
2022/03/08 10:46:18;;;;;;;12.25;9.07;;;;;;;7.89;36.24;101011.66;5560857;31;33682;-54
2022/03/08 10:49:22;;;;;;;12.02;7.93;;;;;;;7.94;34.53;101003.69;5565680;31;33680;-55
2022/03/08 10:52:27;;;;;;;15.18;9.32;;;;;;;8.24;33.56;100995.28;5569366;31;34063;-55
2022/03/08 10:55:33;;;;;;;18.30;10.47;;;;;;;8.38;33.31;101005.63;5562745;31;33816;-55
2022/03/08 10:58:50;;;;;;;13.07;8.77;;;;;;;8.34;33.82;100999.91;5568825;31;33476;-55
2022/03/08 11:01:53;;;;;;;13.48;8.63;;;;;;;8.05;34.04;100998.50;5569124;32;33866;-54
2022/03/08 11:05:08;;;;;;;12.10;7.75;;;;;;;8.08;33.94;100992.66;5569612;31;33124;-54
2022/03/08 11:08:11;;;;;;;13.93;8.48;;;;;;;8.09;32.52;100995.09;5567620;32;34362;-56
2022/03/08 11:11:13;;;;;;;11.98;7.82;;;;;;;8.34;32.17;100991.88;5565982;32;33760;-55
2022/03/08 11:14:16;;;;;;;11.35;7.75;;;;;;;8.53;31.86;101002.28;5568137;31;33607;-55
2022/03/08 11:17:19;;;;;;;11.20;8.00;;;;;;;8.23;32.15;100990.16;5568623;32;33605;-54
2022/03/08 11:20:24;;;;;;;13.02;8.48;;;;;;;8.28;32.85;100982.22;5568452;31;34471;-55
2022/03/08 11:23:29;;;;;;;12.07;8.43;;;;;;;8.23;33.55;100984.81;5568874;31;33771;-55
2022/03/08 11:26:32;;;;;;;15.65;8.98;;;;;;;8.00;33.23;100976.00;5571281;31;33788;-54
2022/03/08 11:29:35;;;;;;;12.93;8.57;;;;;;;8.24;32.98;100973.06;5568595;32;33685;-55
2022/03/08 11:32:51;;;;;;;11.73;8.48;;;;;;;8.39;31.44;100975.16;5570388;31;33642;-55
2022/03/08 11:35:59;;;;;;;10.98;8.48;;;;;;;8.21;32.01;100970.91;5570004;31;33709;-55
2022/03/08 11:39:16;;;;;;;11.02;7.07;;;;;;;8.27;30.95;100969.91;5568725;31;33646;-55
2022/03/08 11:42:29;;;;;;;12.57;8.05;;;;;;;8.35;30.00;100969.47;5568917;31;33783;-55
2022/03/08 11:45:31;;;;;;;12.88;7.55;;;;;;;8.22;30.34;100961.84;5566094;32;34475;-55
2022/03/08 11:48:34;;;;;;;10.75;7.53;;;;;;;8.11;30.29;100955.59;5569313;31;34275;-55
2022/03/08 11:51:36;;;;;;;11.73;8.02;;;;;;;8.19;30.62;100949.81;5569059;31;34457;-54
2022/03/08 11:54:38;;;;;;;10.93;7.20;;;;;;;8.34;30.33;100956.34;5566552;31;34311;-55
2022/03/08 11:57:47;;;;;;;11.57;6.45;;;;;;;8.47;29.65;100935.41;5575047;31;33251;-55
2022/03/08 12:00:57;;;;;;;9.43;7.37;;;;;;;8.65;30.29;100938.81;5568548;31;34075;-55
2022/03/08 12:04:10;;;;;;;8.95;6.78;;;;;;;8.93;29.54;100940.38;5579931;31;34120;-55
2022/03/08 12:07:26;;;;;;;9.90;6.78;;;;;;;8.81;28.25;100931.75;5568421;31;33335;-56
2022/03/08 12:10:28;;;;;;;10.80;6.53;;;;;;;8.80;28.93;100936.25;5569570;31;32186;-55
2022/03/08 12:13:47;;;;;;;9.15;6.03;;;;;;;8.99;28.68;100935.88;5568435;31;33530;-55
2022/03/08 12:16:52;;;;;;;8.20;5.68;;;;;;;8.80;27.65;100924.75;5557110;31;33630;-56
2022/03/08 12:19:58;;;;;;;7.57;4.95;;;;;;;8.97;27.79;100925.44;5568256;31;33652;-56
2022/03/08 12:23:09;;;;;;;6.93;4.87;;;;;;;9.10;26.44;100924.19;5562822;31;33990;-55
2022/03/08 12:26:38;;;;;;;7.15;4.90;;;;;;;9.09;27.07;100915.37;5567219;31;34499;-55
2022/03/08 12:30:06;;;;;;;7.35;5.78;;;;;;;9.24;26.22;100919.19;5576823;31;34392;-56
2022/03/08 12:33:08;;;;;;;8.32;6.35;;;;;;;9.34;26.95;100914.75;5574346;31;33728;-54
2022/03/08 12:36:12;;;;;;;8.43;5.80;;;;;;;9.06;27.79;100918.56;5568543;31;33615;-55
2022/03/08 12:39:49;;;;;;;9.23;5.93;;;;;;;9.00;26.55;100916.91;5564098;31;34292;-55
2022/03/08 12:42:57;;;;;;;8.90;6.05;;;;;;;9.14;27.08;100912.75;5564546;32;34028;-55
2022/03/08 12:46:00;;;;;;;9.70;5.80;;;;;;;9.31;27.25;100909.91;5566842;32;34295;-55
2022/03/08 12:49:06;;;;;;;9.20;6.53;;;;;;;9.25;27.62;100900.22;5567302;31;33338;-56
2022/03/08 12:52:11;;;;;;;10.02;6.68;;;;;;;9.49;27.41;100897.94;5565005;31;33745;-56
2022/03/08 12:55:40;;;;;;;10.77;6.40;;;;;;;9.14;27.78;100896.69;5566762;32;34497;-54
2022/03/08 12:58:42;;;;;;;9.73;6.70;;;;;;;8.96;28.09;100886.38;5575189;31;34142;-55
2022/03/08 13:01:44;;;;;;;10.85;7.37;;;;;;;9.00;28.43;100886.69;5562110;31;32807;-55
2022/03/08 13:04:48;;;;;;;10.43;7.18;;;;;;;8.79;29.23;100880.38;5581535;31;34346;-55
2022/03/08 13:07:52;;;;;;;8.95;6.30;;;;;;;8.83;28.72;100879.59;5585837;31;33715;-55
2022/03/08 13:10:56;;;;;;;8.80;6.15;;;;;;;8.90;29.52;100877.50;5562258;31;34901;-55
2022/03/08 13:14:21;;;;;;;10.35;7.30;;;;;;;8.99;29.40;100877.84;5566292;32;34488;-56
2022/03/08 13:17:29;;;;;;;10.20;7.05;;;;;;;9.15;29.31;100884.13;5567221;32;33773;-55
2022/03/08 13:20:48;;;;;;;8.18;6.15;;;;;;;9.23;28.99;100875.59;5567343;32;33750;-55
2022/03/08 13:23:50;;;;;;;8.43;6.28;;;;;;;9.40;28.08;100886.94;5568659;32;33771;-55
2022/03/08 13:27:02;;;;;;;8.15;5.70;;;;;;;9.43;28.07;100882.13;5570294;32;33835;-55
2022/03/08 13:30:26;;;;;;;9.40;6.15;;;;;;;9.51;28.12;100881.66;5569962;32;33977;-55
2022/03/08 13:33:37;;;;;;;7.65;5.95;;;;;;;9.29;28.30;100874.56;5570173;32;33707;-54
2022/03/08 13:36:39;;;;;;;11.75;6.10;;;;;;;9.29;28.44;100879.12;5570151;32;34450;-55
2022/03/08 13:39:45;;;;;;;10.23;6.53;;;;;;;9.49;28.42;100873.06;5570383;32;34385;-55
2022/03/08 13:42:47;;;;;;;8.90;6.10;;;;;;;9.70;28.50;100865.91;5570177;32;34480;-55
2022/03/08 13:46:15;;;;;;;10.15;6.25;;;;;;;9.69;27.84;100867.78;5570036;32;34310;-54
2022/03/08 13:49:23;;;;;;;11.73;6.57;;;;;;;9.53;28.55;100869.59;5570412;32;33703;-55
2022/03/08 13:52:25;;;;;;;9.45;6.78;;;;;;;9.70;28.73;100879.28;5569389;31;33739;-55
2022/03/08 13:55:30;;;;;;;9.70;6.60;;;;;;;9.82;28.60;100872.66;5559560;31;34425;-55
2022/03/08 13:58:43;;;;;;;8.10;5.93;;;;;;;9.86;27.79;100865.69;5569075;32;34431;-55
2022/03/08 14:02:07;;;;;;;8.95;6.70;;;;;;;9.54;28.19;100862.38;5564091;31;34281;-55
2022/03/08 14:05:10;;;;;;;11.93;6.53;;;;;;;9.46;28.37;100866.34;5569454;31;33718;-55
2022/03/08 14:08:21;;;;;;;9.65;6.57;;;;;;;9.45;28.64;100871.97;5570065;31;34372;-55
2022/03/08 14:11:25;;;;;;;8.80;6.07;;;;;;;9.35;28.55;100860.16;5572801;31;33706;-55
2022/03/08 14:14:30;;;;;;;9.57;6.30;;;;;;;9.46;27.59;100861.00;5569903;31;33154;-56
2022/03/08 14:17:32;;;;;;;10.02;6.50;;;;;;;9.46;28.09;100852.97;5570122;32;33658;-55
2022/03/08 14:20:39;;;;;;;8.88;6.32;;;;;;;9.50;27.22;100848.69;5581306;31;33815;-56
2022/03/08 14:23:42;;;;;;;8.98;5.80;;;;;;;9.41;27.97;100848.41;5588274;31;33537;-55
2022/03/08 14:27:05;;;;;;;9.32;6.03;;;;;;;9.57;27.81;100849.28;5583013;31;34509;-55
2022/03/08 14:30:08;;;;;;;7.75;5.78;;;;;;;9.60;28.12;100847.94;5552821;32;33621;-55
2022/03/08 14:33:12;;;;;;;9.35;6.35;;;;;;;9.60;28.90;100850.63;5565652;31;33947;-55
2022/03/08 14:36:53;;;;;;;10.65;6.32;;;;;;;9.54;28.04;100851.69;5588936;31;33752;-55
2022/03/08 14:39:56;;;;;;;10.40;6.20;;;;;;;9.56;28.34;100850.34;5556835;31;33720;-55
2022/03/08 14:43:04;;;;;;;10.57;7.00;;;;;;;9.52;28.26;100843.09;5589513;31;33755;-55
2022/03/08 14:46:06;;;;;;;8.95;6.97;;;;;;;9.60;28.71;100847.94;5574103;31;34360;-55
2022/03/08 14:49:15;;;;;;;9.30;6.60;;;;;;;9.41;28.54;100844.94;5569661;32;34463;-55
2022/03/08 14:52:30;;;;;;;11.35;6.53;;;;;;;9.30;28.97;100844.06;5569569;32;33494;-54
2022/03/08 14:55:33;;;;;;;11.85;6.87;;;;;;;9.36;28.82;100843.03;5569551;32;33773;-55
2022/03/08 14:58:35;;;;;;;9.00;5.60;;;;;;;9.25;28.46;100825.31;5569409;32;34343;-55
2022/03/08 15:01:38;;;;;;;9.30;6.60;;;;;;;9.48;28.27;100829.44;5569462;32;34376;-55
2022/03/08 15:04:41;;;;;;;9.85;6.28;;;;;;;9.45;28.45;100829.97;5568199;32;33749;-55
2022/03/08 15:07:43;;;;;;;10.15;7.15;;;;;;;9.73;28.24;100828.72;5569428;32;33827;-55
2022/03/08 15:10:45;;;;;;;8.50;6.57;;;;;;;9.71;28.56;100830.88;5569137;32;34022;-55
2022/03/08 15:13:48;;;;;;;10.45;7.15;;;;;;;9.84;28.46;100822.34;5569116;32;34477;-54
2022/03/08 15:16:50;;;;;;;10.93;6.65;;;;;;;9.83;28.74;100834.13;5569078;32;33633;-55
2022/03/08 15:19:53;;;;;;;11.38;6.82;;;;;;;9.60;28.57;100829.19;5568627;32;34546;-55
2022/03/08 15:22:55;;;;;;;13.50;7.28;;;;;;;9.36;28.87;100826.97;5585658;31;33675;-55
2022/03/08 15:25:58;;;;;;;10.13;6.47;;;;;;;9.29;28.98;100825.59;5571632;31;33716;-55
2022/03/08 15:29:01;;;;;;;10.38;5.75;;;;;;;9.45;28.69;100827.28;5568950;32;33701;-55
2022/03/08 15:32:04;;;;;;;9.38;6.15;;;;;;;9.16;27.45;100829.53;5571014;31;33963;-55
2022/03/08 15:35:06;;;;;;;8.10;5.68;;;;;;;9.10;27.95;100825.22;5588608;31;33750;-55
2022/03/08 15:38:08;;;;;;;10.20;5.50;;;;;;;9.24;27.58;100829.06;5588144;31;33717;-55
2022/03/08 15:41:11;;;;;;;10.70;5.43;;;;;;;9.20;27.30;100822.59;5588711;31;33882;-55
2022/03/08 15:44:13;;;;;;;11.45;5.57;;;;;;;9.29;27.75;100829.06;5588535;31;34346;-55
2022/03/08 15:47:16;;;;;;;8.85;5.70;;;;;;;9.46;26.69;100828.88;5586309;31;33856;-55
2022/03/08 15:50:18;;;;;;;10.82;6.55;;;;;;;9.43;26.66;100825.94;5569123;31;34356;-54
2022/03/08 15:53:20;;;;;;;11.68;6.22;;;;;;;9.43;27.31;100826.72;5569183;32;34561;-54
2022/03/08 15:56:23;;;;;;;8.82;6.28;;;;;;;9.33;27.67;100835.50;5568928;32;34351;-55
2022/03/08 15:59:25;;;;;;;9.55;6.22;;;;;;;9.27;28.23;100833.06;5569062;32;34399;-55
2022/03/08 16:02:28;;;;;;;8.98;5.30;;;;;;;9.38;28.32;100835.56;5568655;32;34440;-55
2022/03/08 16:05:31;;;;;;;10.45;5.95;;;;;;;9.49;27.36;100832.91;5568993;32;33856;-54
2022/03/08 16:08:36;;;;;;;8.90;5.55;;;;;;;9.68;26.99;100827.91;5568657;32;34499;-55
2022/03/08 16:11:38;;;;;;;8.02;6.00;;;;;;;9.52;28.67;100832.41;5568991;32;33765;-54
2022/03/08 16:14:40;;;;;;;10.07;6.07;;;;;;;9.35;27.73;100837.94;5568860;32;34206;-55
2022/03/08 16:17:42;;;;;;;9.88;6.28;;;;;;;9.31;27.69;100844.88;5569101;32;33713;-56
2022/03/08 16:20:45;;;;;;;11.32;6.28;;;;;;;9.36;27.67;100840.34;5568514;32;33698;-55
2022/03/08 16:23:49;;;;;;;8.48;6.10;;;;;;;9.33;27.49;100840.06;5568749;32;34457;-54
2022/03/08 16:26:57;;;;;;;9.45;6.53;;;;;;;9.24;27.93;100847.78;5568976;32;34325;-55
2022/03/08 16:30:01;;;;;;;11.77;6.75;;;;;;;9.27;27.97;100851.81;5568844;32;33733;-55
2022/03/08 16:33:03;;;;;;;21.12;18.30;;;;;;;9.17;27.82;100858.72;5568225;32;33642;-55
2022/03/08 16:36:05;;;;;;;99.37;64.43;;;;;;;9.05;29.90;100862.66;5568536;32;33758;-54
